Time;durP1;ratioP1;P1;durP2;ratioP2;P2;SDS_P1;SDS_P2;PMS_P1;PMS_P2;Temp;Humidity;BMP_temperature;BMP_pressure;BME280_temperature;BME280_humidity;BME280_pressure;Samples;Min_cycle;Max_cycle;Signal;HPM_P1;HPM_P2
2023/08/13 00:00:48;;;;;;;11.18;2.53;;;;;16.10;101255.00;;;;10242290;28;21353;-77
2023/08/13 00:05:49;;;;;;;9.15;3.00;;;;;16.10;101252.00;;;;10239703;28;20207;-77
2023/08/13 00:10:51;;;;;;;10.38;2.58;;;;;16.00;101238.00;;;;10242130;28;20273;-76
2023/08/13 00:15:52;;;;;;;8.70;2.63;;;;;16.00;101238.00;;;;10256493;28;20340;-76
2023/08/13 00:20:54;;;;;;;8.20;2.22;;;;;16.10;101238.00;;;;10255460;28;20833;-77
2023/08/13 00:25:55;;;;;;;12.10;2.85;;;;;16.10;101240.00;;;;10240586;28;20432;-76
2023/08/13 00:30:56;;;;;;;11.73;2.35;;;;;16.00;101237.00;;;;10256038;28;20612;-76
2023/08/13 00:35:58;;;;;;;6.63;2.28;;;;;15.90;101238.00;;;;10258506;28;20281;-77
2023/08/13 00:40:59;;;;;;;12.07;2.80;;;;;15.90;101245.00;;;;10261115;28;20218;-77
2023/08/13 00:46:02;;;;;;;7.35;1.92;;;;;15.80;101238.00;;;;10260621;28;21186;-77
2023/08/13 00:51:04;;;;;;;11.40;2.97;;;;;15.80;101240.00;;;;10259222;28;20218;-77
2023/08/13 00:56:05;;;;;;;9.60;2.78;;;;;15.80;101240.00;;;;10244198;28;20266;-75
2023/08/13 01:01:07;;;;;;;8.40;2.67;;;;;15.80;101242.00;;;;10257868;28;20463;-75
2023/08/13 01:06:15;;;;;;;11.88;2.50;;;;;15.80;101241.00;;;;10260281;28;20202;-76
2023/08/13 01:11:55;;;;;;;10.73;2.75;;;;;15.80;101238.00;;;;10261488;28;20234;-76
2023/08/13 01:16:58;;;;;;;8.43;2.63;;;;;15.80;101241.00;;;;10257734;28;20519;-76
2023/08/13 01:21:59;;;;;;;16.20;3.47;;;;;15.90;101233.00;;;;10244329;28;20254;-75
2023/08/13 01:27:23;;;;;;;12.43;3.45;;;;;15.80;101217.00;;;;10239901;28;20699;-76
2023/08/13 01:32:31;;;;;;;8.95;3.40;;;;;15.80;101229.00;;;;10257576;28;21873;-75
2023/08/13 01:37:33;;;;;;;16.48;5.18;;;;;15.70;101224.00;;;;10242777;28;20341;-76
2023/08/13 01:42:34;;;;;;;12.23;5.18;;;;;15.70;101218.00;;;;10241788;28;20294;-76
2023/08/13 01:47:35;;;;;;;9.68;4.57;;;;;15.70;101214.00;;;;10256027;28;20227;-76
2023/08/13 01:52:37;;;;;;;11.02;3.88;;;;;15.60;101223.00;;;;10240839;28;20215;-76
2023/08/13 01:57:38;;;;;;;8.95;2.88;;;;;15.50;101213.00;;;;10239365;28;20437;-76
2023/08/13 02:02:39;;;;;;;15.27;3.63;;;;;15.40;101215.00;;;;10241487;28;20238;-76
2023/08/13 02:07:41;;;;;;;6.82;2.40;;;;;15.30;101211.00;;;;10240878;28;21399;-76
2023/08/13 02:12:43;;;;;;;10.38;2.47;;;;;15.20;101211.00;;;;10224024;28;20215;-76
2023/08/13 02:17:45;;;;;;;10.38;3.15;;;;;15.10;101217.00;;;;10240856;28;20285;-77
2023/08/13 02:22:50;;;;;;;9.57;3.20;;;;;15.10;101217.00;;;;10255900;28;20227;-76
2023/08/13 02:27:51;;;;;;;9.38;2.45;;;;;15.10;101209.00;;;;10256229;28;20819;-76
2023/08/13 02:32:53;;;;;;;7.88;2.72;;;;;15.20;101200.00;;;;10256900;28;20223;-76
2023/08/13 02:37:54;;;;;;;10.88;3.00;;;;;15.20;101206.00;;;;10256569;28;20215;-76
2023/08/13 02:42:55;;;;;;;7.35;2.45;;;;;15.20;101188.00;;;;10240689;28;20345;-76
2023/08/13 02:47:57;;;;;;;15.52;3.33;;;;;15.10;101181.00;;;;10258063;28;20547;-75
2023/08/13 02:53:00;;;;;;;10.00;2.78;;;;;15.10;101177.00;;;;10256117;28;20291;-76
2023/08/13 02:58:02;;;;;;;15.02;3.03;;;;;15.10;101174.00;;;;10255966;28;20919;-76
2023/08/13 03:03:12;;;;;;;9.27;2.50;;;;;15.10;101173.00;;;;10223501;28;20273;-76
2023/08/13 03:08:13;;;;;;;12.35;3.35;;;;;15.10;101184.00;;;;10238617;28;20244;-76
2023/08/13 03:13:15;;;;;;;9.65;3.35;;;;;15.10;101181.00;;;;10237123;28;20837;-76
2023/08/13 03:18:16;;;;;;;8.05;2.63;;;;;15.10;101179.00;;;;10254926;28;20412;-75
2023/08/13 03:23:24;;;;;;;7.43;2.90;;;;;15.10;101174.00;;;;10240133;28;20677;-76
2023/08/13 03:28:25;;;;;;;8.68;2.75;;;;;15.00;101177.00;;;;10254988;28;20245;-76
2023/08/13 03:33:28;;;;;;;13.20;2.72;;;;;15.00;101164.00;;;;10237872;28;20226;-75
2023/08/13 03:38:30;;;;;;;11.90;3.08;;;;;14.90;101158.00;;;;10222007;28;20235;-76
2023/08/13 03:43:31;;;;;;;9.45;3.03;;;;;14.90;101168.00;;;;10255050;28;20735;-76
2023/08/13 03:48:32;;;;;;;8.40;3.47;;;;;15.00;101173.00;;;;10255552;28;20297;-75
2023/08/13 03:53:36;;;;;;;10.15;3.13;;;;;15.00;101177.00;;;;10236817;28;20820;-76
2023/08/13 03:58:38;;;;;;;11.70;3.35;;;;;15.10;101177.00;;;;10220342;28;20322;-76
2023/08/13 04:03:41;;;;;;;13.02;3.42;;;;;15.20;101177.00;;;;10238601;28;20891;-75
2023/08/13 04:08:43;;;;;;;9.27;3.10;;;;;15.20;101168.00;;;;10237222;28;20211;-76
2023/08/13 04:13:45;;;;;;;12.70;3.40;;;;;15.30;101178.00;;;;10244812;28;20793;-76
2023/08/13 04:18:46;;;;;;;20.70;4.47;;;;;15.30;101176.00;;;;10262429;28;20748;-76
2023/08/13 04:23:49;;;;;;;10.75;4.13;;;;;15.30;101167.00;;;;10243500;28;20211;-76
2023/08/13 04:28:50;;;;;;;12.88;3.47;;;;;15.20;101170.00;;;;10241609;28;20290;-76
2023/08/13 04:33:52;;;;;;;8.45;3.30;;;;;15.20;101166.00;;;;10261862;28;20204;-76
2023/08/13 04:38:55;;;;;;;13.55;3.58;;;;;15.20;101168.00;;;;10224173;28;20464;-76
2023/08/13 04:43:58;;;;;;;10.98;3.75;;;;;15.20;101165.00;;;;10210214;28;20204;-76
2023/08/13 04:49:00;;;;;;;12.20;3.72;;;;;15.20;101164.00;;;;10241016;28;20211;-76
2023/08/13 04:54:04;;;;;;;10.45;3.10;;;;;15.30;101173.00;;;;10225076;28;20200;-76
2023/08/13 04:59:06;;;;;;;9.63;2.72;;;;;15.30;101168.00;;;;10242912;28;20345;-76
2023/08/13 05:04:08;;;;;;;7.55;2.90;;;;;15.40;101165.00;;;;10226521;28;21345;-76
2023/08/13 05:09:11;;;;;;;11.13;3.08;;;;;15.50;101169.00;;;;10226689;28;20205;-76
2023/08/13 05:14:13;;;;;;;9.27;3.08;;;;;15.60;101168.00;;;;10241953;28;20264;-76
2023/08/13 05:19:14;;;;;;;10.23;3.28;;;;;15.80;101169.00;;;;10258631;28;20322;-75
2023/08/13 05:24:16;;;;;;;10.18;2.92;;;;;16.00;101176.00;;;;10238486;28;20229;-76
2023/08/13 05:29:18;;;;;;;11.63;3.38;;;;;16.20;101166.00;;;;10259113;28;21586;-75
2023/08/13 05:34:19;;;;;;;9.18;3.10;;;;;16.30;101172.00;;;;10240174;28;20342;-76
2023/08/13 05:39:22;;;;;;;8.05;2.78;;;;;16.20;101169.00;;;;10241465;28;20223;-75
2023/08/13 05:44:23;;;;;;;11.50;3.65;;;;;16.30;101163.00;;;;10258571;28;20899;-75
2023/08/13 05:49:25;;;;;;;7.60;3.25;;;;;16.40;101160.00;;;;10258178;28;20678;-76
2023/08/13 05:54:27;;;;;;;12.90;3.78;;;;;16.60;101167.00;;;;10257338;28;20273;-76
2023/08/13 05:59:28;;;;;;;9.07;3.05;;;;;17.20;101171.00;;;;10256906;28;20342;-76
2023/08/13 06:04:29;;;;;;;11.63;2.80;;;;;17.90;101165.00;;;;10257136;28;20203;-76
2023/08/13 06:09:31;;;;;;;6.75;2.63;;;;;17.70;101169.00;;;;10256876;28;20218;-76
2023/08/13 06:14:32;;;;;;;11.25;2.78;;;;;17.60;101174.00;;;;10237027;28;20436;-76
2023/08/13 06:19:33;;;;;;;6.80;3.15;;;;;17.60;101170.00;;;;10254754;28;20219;-76
2023/08/13 06:24:35;;;;;;;8.77;2.50;;;;;17.90;101164.00;;;;10237804;28;20207;-75
2023/08/13 06:29:36;;;;;;;6.45;2.72;;;;;18.10;101178.00;;;;10238350;28;20219;-75
2023/08/13 06:34:37;;;;;;;13.00;3.05;;;;;18.20;101179.00;;;;10253957;28;20243;-76
2023/08/13 06:39:39;;;;;;;9.43;3.33;;;;;18.40;101171.00;;;;10236267;28;20211;-76
2023/08/13 06:44:40;;;;;;;8.52;2.72;;;;;18.50;101176.00;;;;10255333;28;20227;-77
2023/08/13 06:49:41;;;;;;;7.95;2.80;;;;;18.70;101172.00;;;;10238315;28;20250;-75
2023/08/13 06:54:42;;;;;;;9.52;2.70;;;;;18.80;101168.00;;;;10238490;28;20345;-76
2023/08/13 06:59:44;;;;;;;9.48;3.17;;;;;18.80;101167.00;;;;10255748;28;20359;-76
2023/08/13 07:04:45;;;;;;;10.20;2.95;;;;;19.00;101170.00;;;;10241041;28;20724;-76
2023/08/13 07:09:47;;;;;;;15.98;3.20;;;;;19.00;101169.00;;;;10253287;28;20223;-76
2023/08/13 07:14:49;;;;;;;6.78;2.10;;;;;19.10;101165.00;;;;10239289;28;20301;-76
2023/08/13 07:19:50;;;;;;;5.65;3.15;;;;;19.40;101167.00;;;;10258697;28;20222;-76
2023/08/13 07:24:51;;;;;;;7.70;2.50;;;;;19.80;101164.00;;;;10254851;28;20214;-76
2023/08/13 07:29:53;;;;;;;7.03;2.70;;;;;20.30;101164.00;;;;10234953;28;21482;-76
2023/08/13 07:34:55;;;;;;;8.30;2.13;;;;;20.80;101168.00;;;;10253638;28;20258;-76
2023/08/13 07:39:56;;;;;;;8.30;2.50;;;;;20.80;101166.00;;;;10237812;28;20312;-76
2023/08/13 07:44:57;;;;;;;12.15;2.22;;;;;21.00;101171.00;;;;10257434;28;20821;-76
2023/08/13 07:49:59;;;;;;;13.27;3.00;;;;;21.00;101173.00;;;;10260916;28;20805;-76
2023/08/13 07:55:02;;;;;;;8.48;2.10;;;;;21.10;101162.00;;;;10261684;28;20306;-75
2023/08/13 08:00:08;;;;;;;10.15;3.05;;;;;21.30;101172.00;;;;10229578;28;20231;-76
2023/08/13 08:05:18;;;;;;;8.23;2.53;;;;;21.30;101169.00;;;;10260730;28;20208;-76
2023/08/13 08:10:19;;;;;;;10.15;2.50;;;;;21.50;101162.00;;;;10242648;28;20251;-75
2023/08/13 08:15:21;;;;;;;8.05;2.75;;;;;22.00;101163.00;;;;10263421;28;21273;-76
2023/08/13 08:20:23;;;;;;;12.13;2.72;;;;;22.20;101161.00;;;;10260773;28;20207;-75
2023/08/13 08:25:24;;;;;;;6.88;2.40;;;;;22.70;101151.00;;;;10262001;28;20218;-75
2023/08/13 08:30:26;;;;;;;4.78;2.17;;;;;23.30;101154.00;;;;10263397;28;20886;-74
2023/08/13 08:35:27;;;;;;;11.70;2.72;;;;;23.40;101148.00;;;;10242361;28;20329;-74
2023/08/13 08:40:29;;;;;;;7.47;2.33;;;;;23.70;101142.00;;;;10262258;28;20671;-75
2023/08/13 08:45:33;;;;;;;7.95;2.25;;;;;24.30;101139.00;;;;10260367;28;20207;-75
2023/08/13 08:50:38;;;;;;;8.25;2.20;;;;;24.80;101145.00;;;;10263910;28;20203;-78
2023/08/13 08:55:40;;;;;;;7.50;2.50;;;;;25.00;101131.00;;;;10261057;28;20688;-76
2023/08/13 09:00:42;;;;;;;8.10;2.70;;;;;25.10;101127.00;;;;10261695;28;20195;-76
2023/08/13 09:05:43;;;;;;;9.30;2.67;;;;;24.60;101130.00;;;;10244133;28;20506;-75
2023/08/13 09:10:45;;;;;;;9.35;2.92;;;;;24.60;101129.00;;;;10269056;28;20207;-78
2023/08/13 09:15:50;;;;;;;4.53;1.98;;;;;25.70;101126.00;;;;10266226;28;20822;-78
2023/08/13 09:20:51;;;;;;;9.82;2.90;;;;;25.40;101128.00;;;;10265796;28;20211;-78
2023/08/13 09:25:54;;;;;;;7.85;2.60;;;;;25.70;101114.00;;;;10258904;28;20207;-75
2023/08/13 09:30:59;;;;;;;8.75;2.88;;;;;26.70;101114.00;;;;10239841;28;20468;-78
2023/08/13 09:36:00;;;;;;;8.88;2.65;;;;;27.80;101104.00;;;;10242220;28;20318;-77
2023/08/13 09:41:04;;;;;;;6.63;2.45;;;;;28.20;101091.00;;;;10259736;28;20264;-78
2023/08/13 09:46:07;;;;;;;5.90;2.42;;;;;28.70;101091.00;;;;10259504;28;20202;-78
2023/08/13 09:51:13;;;;;;;8.23;2.88;;;;;28.20;101087.00;;;;10258436;28;20230;-77
2023/08/13 09:56:30;;;;;;;10.55;2.85;;;;;29.00;101092.00;;;;10243956;28;20211;-77
2023/08/13 10:01:32;;;;;;;7.07;2.75;;;;;29.10;101086.00;;;;10258029;28;20222;-78
2023/08/13 10:06:35;;;;;;;9.70;2.60;;;;;30.50;101071.00;;;;10224976;28;20227;-77
2023/08/13 10:11:36;;;;;;;6.35;2.25;;;;;31.30;101074.00;;;;10244489;28;20566;-78
2023/08/13 10:16:39;;;;;;;6.20;2.60;;;;;31.50;101075.00;;;;10239913;28;20230;-77
2023/08/13 10:21:40;;;;;;;5.82;2.40;;;;;31.60;101066.00;;;;10258619;28;20225;-77
2023/08/13 10:26:42;;;;;;;9.20;2.20;;;;;31.80;101062.00;;;;10258011;28;20203;-79
2023/08/13 10:31:59;;;;;;;6.07;2.50;;;;;32.00;101079.00;;;;10259234;28;20218;-76
2023/08/13 10:37:01;;;;;;;5.18;2.30;;;;;30.40;101070.00;;;;10258493;28;20231;-76
2023/08/13 10:42:04;;;;;;;12.32;2.60;;;;;28.30;101065.00;;;;10257275;28;20228;-76
2023/08/13 10:47:06;;;;;;;7.25;2.20;;;;;27.90;101069.00;;;;10257619;28;20237;-75
2023/08/13 10:52:07;;;;;;;7.30;2.55;;;;;29.40;101051.00;;;;10243899;28;20717;-78
2023/08/13 10:57:09;;;;;;;7.03;2.28;;;;;30.20;101060.00;;;;10240897;28;20320;-76
2023/08/13 11:02:14;;;;;;;4.72;1.95;;;;;29.00;101058.00;;;;10242219;28;20630;-76
2023/08/13 11:07:16;;;;;;;5.15;2.25;;;;;29.80;101047.00;;;;10261758;28;20461;-75
2023/08/13 11:12:17;;;;;;;6.20;2.50;;;;;31.40;101036.00;;;;10256407;28;21251;-76
2023/08/13 11:17:19;;;;;;;5.70;2.10;;;;;32.60;101043.00;;;;10255857;28;20223;-76
2023/08/13 11:22:20;;;;;;;6.60;1.85;;;;;32.70;101046.00;;;;10267295;28;20859;-79
2023/08/13 11:27:29;;;;;;;4.72;2.05;;;;;30.20;101047.00;;;;10271273;28;20834;-79
2023/08/13 11:32:30;;;;;;;6.63;2.05;;;;;30.90;101035.00;;;;10269855;28;20215;-76
2023/08/13 11:37:37;;;;;;;5.78;1.90;;;;;30.90;101040.00;;;;10264162;28;20215;-78
2023/08/13 11:42:58;;;;;;;7.95;2.58;;;;;29.20;101029.00;;;;10251626;28;21495;-76
2023/08/13 11:48:15;;;;;;;6.53;2.25;;;;;30.80;101019.00;;;;10266679;28;20227;-78
2023/08/13 11:53:17;;;;;;;6.43;2.25;;;;;30.20;101041.00;;;;10268662;28;20770;-78
2023/08/13 11:58:20;;;;;;;5.15;2.30;;;;;31.40;101025.00;;;;10262537;28;21189;-77
2023/08/13 12:03:21;;;;;;;8.88;2.80;;;;;32.90;101024.00;;;;10263849;28;20869;-77
2023/08/13 12:08:27;;;;;;;5.82;2.30;;;;;33.30;101028.00;;;;10263263;28;20832;-76
2023/08/13 12:13:29;;;;;;;4.93;1.60;;;;;33.20;101016.00;;;;10260352;28;20631;-76
2023/08/13 12:18:30;;;;;;;5.82;1.67;;;;;32.80;101018.00;;;;10244183;28;21915;-77
2023/08/13 12:23:31;;;;;;;2.90;1.25;;;;;32.50;101019.00;;;;10262817;28;20823;-78
2023/08/13 12:28:32;;;;;;;3.85;1.33;;;;;32.30;101008.00;;;;10262453;28;20218;-78
2023/08/13 12:33:34;;;;;;;4.18;1.77;;;;;32.30;101015.00;;;;10264709;28;20828;-76
2023/08/13 12:38:36;;;;;;;4.32;1.60;;;;;32.30;101007.00;;;;10262022;28;20242;-75
2023/08/13 12:43:39;;;;;;;4.40;1.60;;;;;32.60;101003.00;;;;10261652;28;20215;-76
2023/08/13 12:48:40;;;;;;;5.60;1.45;;;;;32.50;101019.00;;;;10261689;28;21003;-76
2023/08/13 12:53:42;;;;;;;4.88;1.70;;;;;31.70;101020.00;;;;10245479;28;20298;-76
2023/08/13 12:58:44;;;;;;;4.68;1.55;;;;;31.00;101009.00;;;;10244056;28;20626;-76
2023/08/13 13:03:46;;;;;;;5.07;1.60;;;;;31.40;101011.00;;;;10245027;28;21699;-77
2023/08/13 13:08:47;;;;;;;7.80;2.05;;;;;30.10;101024.00;;;;10246937;28;20445;-80
2023/08/13 13:13:50;;;;;;;5.00;1.92;;;;;29.30;101008.00;;;;10244783;28;20207;-77
2023/08/13 13:18:51;;;;;;;5.78;1.90;;;;;29.80;101019.00;;;;10259153;28;20258;-77
2023/08/13 13:23:54;;;;;;;5.13;1.63;;;;;29.50;101015.00;;;;10258685;28;20277;-76
2023/08/13 13:28:55;;;;;;;5.57;2.10;;;;;29.70;101017.00;;;;10258632;28;21485;-76
2023/08/13 13:33:56;;;;;;;4.93;1.63;;;;;28.90;101017.00;;;;10258462;28;21315;-76
2023/08/13 13:38:58;;;;;;;6.20;1.60;;;;;29.60;101009.00;;;;10259997;28;21448;-77
2023/08/13 13:43:59;;;;;;;5.35;2.15;;;;;30.20;100992.00;;;;10261167;28;20235;-78
2023/08/13 13:49:00;;;;;;;4.10;1.52;;;;;30.10;100989.00;;;;10265161;28;20223;-78
2023/08/13 13:54:02;;;;;;;5.45;1.77;;;;;29.80;100990.00;;;;10242200;28;20212;-76
2023/08/13 13:59:04;;;;;;;5.72;1.80;;;;;29.70;100990.00;;;;10240317;28;20227;-76
2023/08/13 14:04:05;;;;;;;3.97;1.70;;;;;28.70;100989.00;;;;10259421;28;20211;-76
2023/08/13 14:09:07;;;;;;;5.30;1.90;;;;;27.80;100986.00;;;;10257065;28;20238;-76
2023/08/13 14:14:08;;;;;;;8.35;2.03;;;;;27.10;100990.00;;;;10256881;28;20207;-76
2023/08/13 14:19:09;;;;;;;3.47;1.85;;;;;26.50;100985.00;;;;10257969;28;20219;-76
2023/08/13 14:24:11;;;;;;;5.85;1.70;;;;;26.00;100990.00;;;;10257279;28;20294;-76
2023/08/13 14:29:12;;;;;;;3.72;1.50;;;;;25.80;100992.00;;;;10257457;28;20209;-76
2023/08/13 14:34:14;;;;;;;5.50;1.85;;;;;25.90;101010.00;;;;10261785;28;20614;-77
2023/08/13 14:39:15;;;;;;;3.95;1.52;;;;;25.70;101016.00;;;;10263001;28;20223;-77
2023/08/13 14:44:16;;;;;;;6.15;1.70;;;;;25.50;101010.00;;;;10257152;28;20215;-76
2023/08/13 14:49:18;;;;;;;5.68;2.03;;;;;26.40;101007.00;;;;10257606;28;20250;-77
2023/08/13 14:54:19;;;;;;;7.32;1.75;;;;;27.60;101004.00;;;;10224217;28;20229;-78
2023/08/13 14:59:20;;;;;;;3.75;1.73;;;;;27.20;101004.00;;;;10246895;28;20377;-77
2023/08/13 15:04:22;;;;;;;5.97;1.75;;;;;26.60;101007.00;;;;10263867;28;20310;-78
2023/08/13 15:09:23;;;;;;;6.95;2.03;;;;;26.60;101008.00;;;;10243372;28;20546;-78
2023/08/13 15:14:24;;;;;;;3.83;1.73;;;;;26.60;101013.00;;;;10262495;28;20202;-78
2023/08/13 15:19:26;;;;;;;5.15;1.50;;;;;26.20;101005.00;;;;10241102;28;20212;-77
2023/08/13 15:24:27;;;;;;;9.20;2.17;;;;;26.10;101003.00;;;;10236553;28;20246;-77
2023/08/13 15:29:28;;;;;;;8.77;2.13;;;;;26.00;101007.00;;;;10256094;28;20215;-76
2023/08/13 15:34:30;;;;;;;5.93;1.88;;;;;25.70;101004.00;;;;10256706;28;21105;-75
2023/08/13 15:39:31;;;;;;;5.82;2.10;;;;;26.00;100997.00;;;;10237741;28;20219;-76
2023/08/13 15:44:32;;;;;;;6.60;2.20;;;;;26.20;101001.00;;;;10255061;28;20214;-75
2023/08/13 15:49:34;;;;;;;4.00;1.70;;;;;25.60;100999.00;;;;10256392;28;20230;-77
2023/08/13 15:54:35;;;;;;;6.63;2.13;;;;;25.90;101008.00;;;;10255277;28;20218;-77
2023/08/13 15:59:36;;;;;;;3.92;1.55;;;;;26.50;101017.00;;;;10261164;28;20234;-77
2023/08/13 16:04:38;;;;;;;4.32;1.50;;;;;25.80;101023.00;;;;10241655;28;20216;-76
2023/08/13 16:09:39;;;;;;;8.38;1.80;;;;;25.30;101014.00;;;;10263647;28;20211;-76
2023/08/13 16:14:40;;;;;;;7.07;2.15;;;;;25.30;101008.00;;;;10263362;28;20231;-76
2023/08/13 16:19:42;;;;;;;6.25;1.90;;;;;25.20;101008.00;;;;10246665;28;20900;-77
2023/08/13 16:24:43;;;;;;;5.35;1.88;;;;;25.20;100997.00;;;;10260512;28;20219;-78
2023/08/13 16:29:44;;;;;;;8.02;1.90;;;;;25.00;101001.00;;;;10243366;28;20549;-77
2023/08/13 16:34:45;;;;;;;7.40;2.00;;;;;24.60;101017.00;;;;10260008;28;20647;-76
2023/08/13 16:39:47;;;;;;;8.60;1.92;;;;;24.60;101004.00;;;;10241830;28;20345;-75
2023/08/13 16:44:48;;;;;;;7.57;1.77;;;;;24.60;101001.00;;;;10258413;28;20505;-76
2023/08/13 16:49:50;;;;;;;9.27;2.10;;;;;24.40;101006.00;;;;10241348;28;20203;-76
2023/08/13 16:55:06;;;;;;;5.43;1.92;;;;;24.30;100997.00;;;;10259468;28;20198;-74
2023/08/13 17:00:10;;;;;;;4.53;1.50;;;;;24.00;100990.00;;;;10256967;28;20232;-77
2023/08/13 17:05:12;;;;;;;6.13;2.03;;;;;23.80;100998.00;;;;10239049;28;20214;-77
2023/08/13 17:10:14;;;;;;;6.03;1.85;;;;;23.60;100998.00;;;;10256814;28;20972;-76
2023/08/13 17:15:15;;;;;;;6.50;1.90;;;;;23.60;101000.00;;;;10260866;28;20233;-76
2023/08/13 17:20:27;;;;;;;7.25;1.98;;;;;23.70;100991.00;;;;10262706;28;21001;-75
2023/08/13 17:25:28;;;;;;;6.65;2.35;;;;;23.60;100993.00;;;;10258009;28;20678;-74
2023/08/13 17:30:29;;;;;;;5.03;1.80;;;;;23.60;101000.00;;;;10240410;28;20212;-77
2023/08/13 17:35:31;;;;;;;3.20;1.70;;;;;23.70;100993.00;;;;10258060;28;20778;-76
2023/08/13 17:40:32;;;;;;;5.28;1.83;;;;;24.00;101000.00;;;;10254978;28;20365;-75
2023/08/13 17:45:36;;;;;;;4.10;1.40;;;;;23.90;100999.00;;;;10255486;28;20246;-77
2023/08/13 17:50:39;;;;;;;3.88;1.70;;;;;23.60;101001.00;;;;10240578;28;20289;-76
2023/08/13 17:55:40;;;;;;;5.82;1.80;;;;;23.50;101005.00;;;;10255266;28;20227;-76
2023/08/13 18:00:41;;;;;;;4.80;1.13;;;;;23.20;101001.00;;;;10237560;28;20297;-75
2023/08/13 18:05:43;;;;;;;5.22;1.70;;;;;22.90;101008.00;;;;10241282;28;20202;-76
2023/08/13 18:10:44;;;;;;;3.88;1.60;;;;;22.50;101026.00;;;;10256032;28;20428;-76
2023/08/13 18:15:48;;;;;;;3.25;1.80;;;;;22.10;101018.00;;;;10255498;28;20289;-74
2023/08/13 18:20:49;;;;;;;5.10;1.73;;;;;21.90;101028.00;;;;10256692;28;20293;-75
2023/08/13 18:25:51;;;;;;;6.63;1.75;;;;;21.60;101024.00;;;;10258334;28;20273;-77
2023/08/13 18:30:52;;;;;;;3.13;1.35;;;;;21.50;101031.00;;;;10253193;28;20200;-76
2023/08/13 18:35:55;;;;;;;4.93;1.67;;;;;21.40;101032.00;;;;10256643;28;21585;-74
2023/08/13 18:40:56;;;;;;;4.25;1.70;;;;;21.20;101035.00;;;;10236635;28;20214;-76
2023/08/13 18:45:58;;;;;;;4.78;1.75;;;;;21.00;101036.00;;;;10258081;28;21273;-75
2023/08/13 18:50:59;;;;;;;6.05;2.92;;;;;20.90;101035.00;;;;10254402;28;20283;-76
2023/08/13 18:56:00;;;;;;;3.70;1.85;;;;;20.70;101040.00;;;;10257340;28;20361;-75
2023/08/13 19:01:02;;;;;;;4.47;1.60;;;;;20.50;101034.00;;;;10234600;28;20292;-76
2023/08/13 19:06:03;;;;;;;2.72;1.83;;;;;20.20;101036.00;;;;10238281;28;20203;-76
2023/08/13 19:11:05;;;;;;;7.45;1.95;;;;;20.00;101051.00;;;;10224969;28;20203;-76
2023/08/13 19:16:06;;;;;;;8.35;2.00;;;;;19.70;101058.00;;;;10235074;28;21389;-76
2023/08/13 19:21:07;;;;;;;4.05;2.42;;;;;19.60;101051.00;;;;10239075;28;20218;-76
2023/08/13 19:26:08;;;;;;;3.63;2.05;;;;;19.40;101057.00;;;;10250532;28;20905;-77
2023/08/13 19:31:10;;;;;;;7.75;2.50;;;;;19.20;101065.00;;;;10253214;28;20833;-77
2023/08/13 19:36:12;;;;;;;7.07;2.30;;;;;19.00;101073.00;;;;10253959;28;20631;-77
2023/08/13 19:41:14;;;;;;;7.97;2.35;;;;;18.80;101079.00;;;;10257062;28;21485;-75
2023/08/13 19:46:15;;;;;;;6.55;2.60;;;;;18.70;101076.00;;;;10260137;28;20685;-74
2023/08/13 19:51:16;;;;;;;5.60;2.70;;;;;18.70;101083.00;;;;10243662;28;20926;-76
2023/08/13 19:56:18;;;;;;;6.97;2.78;;;;;18.50;101099.00;;;;10241017;28;20559;-76
2023/08/13 20:01:19;;;;;;;7.47;2.10;;;;;18.40;101095.00;;;;10258894;28;20286;-75
2023/08/13 20:06:20;;;;;;;4.95;2.53;;;;;18.30;101088.00;;;;10260318;28;20328;-75
2023/08/13 20:11:22;;;;;;;4.07;2.15;;;;;18.20;101085.00;;;;10258706;28;20732;-76
2023/08/13 20:16:23;;;;;;;7.18;2.58;;;;;18.10;101088.00;;;;10257518;28;20219;-76
2023/08/13 20:21:25;;;;;;;4.90;2.30;;;;;18.00;101087.00;;;;10258523;28;20214;-77
2023/08/13 20:26:26;;;;;;;6.68;2.75;;;;;17.90;101083.00;;;;10259256;28;20352;-76
2023/08/13 20:31:28;;;;;;;4.07;2.60;;;;;17.80;101087.00;;;;10224778;28;20363;-76
2023/08/13 20:36:30;;;;;;;10.23;3.13;;;;;17.70;101103.00;;;;10241382;28;20230;-76
2023/08/13 20:41:32;;;;;;;8.00;2.83;;;;;17.60;101095.00;;;;10259633;28;20222;-77
2023/08/13 20:46:33;;;;;;;7.65;2.65;;;;;17.50;101100.00;;;;10245009;28;20207;-76
2023/08/13 20:51:35;;;;;;;3.03;2.70;;;;;17.40;101094.00;;;;10260975;28;20223;-77
2023/08/13 20:56:36;;;;;;;5.45;2.85;;;;;17.40;101085.00;;;;10241534;28;20230;-76
2023/08/13 21:01:38;;;;;;;9.57;2.97;;;;;17.30;101086.00;;;;10241820;28;20215;-75
2023/08/13 21:06:39;;;;;;;6.55;3.17;;;;;17.50;101089.00;;;;10240194;28;20212;-75
2023/08/13 21:11:41;;;;;;;4.22;2.72;;;;;17.60;101082.00;;;;10253970;28;20728;-75
2023/08/13 21:16:43;;;;;;;6.50;2.50;;;;;17.70;101083.00;;;;10238175;28;20223;-77
2023/08/13 21:21:44;;;;;;;5.35;2.20;;;;;17.70;101084.00;;;;10220804;28;20211;-77
2023/08/13 21:26:46;;;;;;;8.48;2.70;;;;;17.60;101103.00;;;;10237165;28;20953;-77
2023/08/13 21:31:47;;;;;;;4.47;1.95;;;;;17.50;101101.00;;;;10256313;28;20215;-77
2023/08/13 21:36:48;;;;;;;3.33;1.75;;;;;17.40;101089.00;;;;10257152;28;20219;-76
2023/08/13 21:41:50;;;;;;;4.22;2.38;;;;;17.40;101100.00;;;;10255027;28;20211;-75
2023/08/13 21:46:51;;;;;;;4.63;2.17;;;;;17.30;101104.00;;;;10240833;28;20207;-75
2023/08/13 21:51:53;;;;;;;3.30;1.80;;;;;17.20;101109.00;;;;10255877;28;20582;-76
2023/08/13 21:56:54;;;;;;;4.40;1.95;;;;;17.10;101095.00;;;;10257654;28;20345;-75
2023/08/13 22:01:56;;;;;;;4.03;1.90;;;;;17.10;101110.00;;;;10256520;28;20207;-76
2023/08/13 22:06:57;;;;;;;3.05;1.67;;;;;17.00;101111.00;;;;10254860;28;20568;-76
2023/08/13 22:11:59;;;;;;;3.95;1.95;;;;;17.00;101115.00;;;;10252410;28;20253;-76
2023/08/13 22:17:00;;;;;;;5.03;1.83;;;;;17.00;101128.00;;;;10237090;28;20278;-75
2023/08/13 22:22:02;;;;;;;4.75;1.80;;;;;17.10;101122.00;;;;10255026;28;20273;-77
2023/08/13 22:27:04;;;;;;;2.75;1.90;;;;;17.10;101128.00;;;;10255093;28;20805;-77
2023/08/13 22:32:05;;;;;;;3.53;1.50;;;;;17.10;101118.00;;;;10238851;28;20210;-75
2023/08/13 22:37:07;;;;;;;3.42;1.58;;;;;17.10;101125.00;;;;10239085;28;20219;-75
2023/08/13 22:42:08;;;;;;;4.93;2.28;;;;;17.00;101124.00;;;;10224634;28;20270;-75
2023/08/13 22:47:09;;;;;;;3.85;1.80;;;;;17.00;101131.00;;;;10251906;28;20669;-77
2023/08/13 22:52:11;;;;;;;2.60;1.83;;;;;17.00;101129.00;;;;10250876;28;20334;-76
2023/08/13 22:57:12;;;;;;;4.72;1.90;;;;;17.10;101129.00;;;;10254025;28;20219;-76
2023/08/13 23:02:14;;;;;;;5.97;2.10;;;;;17.10;101122.00;;;;10252854;28;20673;-75
2023/08/13 23:07:15;;;;;;;2.65;1.67;;;;;17.10;101123.00;;;;10255197;28;20203;-76
2023/08/13 23:12:17;;;;;;;4.35;2.42;;;;;17.00;101117.00;;;;10237991;28;20523;-75
2023/08/13 23:17:18;;;;;;;7.28;2.20;;;;;16.80;101116.00;;;;10249781;28;21497;-76
2023/08/13 23:22:20;;;;;;;2.92;2.20;;;;;16.60;101112.00;;;;10265884;28;20556;-78
2023/08/13 23:27:21;;;;;;;4.05;2.22;;;;;16.40;101105.00;;;;10268627;28;20207;-74
2023/08/13 23:32:23;;;;;;;6.35;2.55;;;;;16.40;101102.00;;;;10249579;28;20291;-77
2023/08/13 23:37:24;;;;;;;5.78;2.08;;;;;16.30;101096.00;;;;10266691;28;20883;-78
2023/08/13 23:42:25;;;;;;;2.70;2.03;;;;;16.20;101088.00;;;;10264834;28;21007;-76
2023/08/13 23:47:26;;;;;;;3.65;2.00;;;;;16.10;101082.00;;;;10268459;28;20222;-75
2023/08/13 23:52:28;;;;;;;4.53;2.42;;;;;16.00;101074.00;;;;10270086;28;20325;-76
2023/08/13 23:57:29;;;;;;;3.58;2.08;;;;;15.80;101081.00;;;;10267726;28;20235;-75
